sensor_id;sensor_type;location;lat;lon;timestamp;pressure;altitude;pressure_sealevel;temperature;humidity
80118;BME280;69424;48.770;-1.564;2023-04-25T00:00:25;101383.28;;;10.18;73.56
80118;BME280;69424;48.770;-1.564;2023-04-25T00:03:13;101383.63;;;10.17;73.64
80118;BME280;69424;48.770;-1.564;2023-04-25T00:05:42;101389.98;;;10.16;73.94
80118;BME280;69424;48.770;-1.564;2023-04-25T00:08:10;101398.27;;;10.15;74.70
80118;BME280;69424;48.770;-1.564;2023-04-25T00:10:39;101394.81;;;10.19;74.10
80118;BME280;69424;48.770;-1.564;2023-04-25T00:13:07;101394.91;;;10.24;74.19
80118;BME280;69424;48.770;-1.564;2023-04-25T00:15:36;101399.96;;;10.29;73.92
80118;BME280;69424;48.770;-1.564;2023-04-25T00:18:05;101397.89;;;10.31;73.76
80118;BME280;69424;48.770;-1.564;2023-04-25T00:20:35;101395.98;;;10.32;73.80
80118;BME280;69424;48.770;-1.564;2023-04-25T00:23:05;101392.27;;;10.32;74.45
80118;BME280;69424;48.770;-1.564;2023-04-25T00:25:33;101386.58;;;10.31;74.66
80118;BME280;69424;48.770;-1.564;2023-04-25T00:28:02;101383.86;;;10.35;74.75
80118;BME280;69424;48.770;-1.564;2023-04-25T00:30:30;101383.07;;;10.40;74.95
80118;BME280;69424;48.770;-1.564;2023-04-25T00:32:58;101382.98;;;10.44;74.83
80118;BME280;69424;48.770;-1.564;2023-04-25T00:35:26;101384.27;;;10.46;75.29
80118;BME280;69424;48.770;-1.564;2023-04-25T00:37:54;101382.47;;;10.46;74.78
80118;BME280;69424;48.770;-1.564;2023-04-25T00:40:23;101385.36;;;10.39;74.02
80118;BME280;69424;48.770;-1.564;2023-04-25T00:42:52;101394.77;;;10.33;73.89
80118;BME280;69424;48.770;-1.564;2023-04-25T00:45:20;101392.46;;;10.25;73.69
80118;BME280;69424;48.770;-1.564;2023-04-25T00:47:49;101393.38;;;10.18;73.45
80118;BME280;69424;48.770;-1.564;2023-04-25T00:50:18;101393.47;;;10.14;73.66
80118;BME280;69424;48.770;-1.564;2023-04-25T00:52:46;101391.98;;;10.10;73.26
80118;BME280;69424;48.770;-1.564;2023-04-25T00:55:14;101396.15;;;10.07;73.21
80118;BME280;69424;48.770;-1.564;2023-04-25T00:57:43;101397.70;;;10.05;73.10
80118;BME280;69424;48.770;-1.564;2023-04-25T01:00:12;101394.09;;;10.02;73.77
80118;BME280;69424;48.770;-1.564;2023-04-25T01:02:43;101399.11;;;9.97;74.35
80118;BME280;69424;48.770;-1.564;2023-04-25T01:05:12;101401.46;;;9.92;74.66
80118;BME280;69424;48.770;-1.564;2023-04-25T01:07:41;101405.98;;;9.88;75.05
80118;BME280;69424;48.770;-1.564;2023-04-25T01:10:09;101404.03;;;9.88;74.98
80118;BME280;69424;48.770;-1.564;2023-04-25T01:12:38;101400.73;;;9.90;74.58
80118;BME280;69424;48.770;-1.564;2023-04-25T01:15:06;101396.04;;;9.94;75.09
80118;BME280;69424;48.770;-1.564;2023-04-25T01:17:35;101395.08;;;9.98;75.09
80118;BME280;69424;48.770;-1.564;2023-04-25T01:20:04;101398.65;;;10.00;75.27
80118;BME280;69424;48.770;-1.564;2023-04-25T01:22:33;101396.52;;;10.00;75.58
80118;BME280;69424;48.770;-1.564;2023-04-25T01:25:02;101403.02;;;9.99;75.57
80118;BME280;69424;48.770;-1.564;2023-04-25T01:27:31;101400.48;;;9.94;75.74
80118;BME280;69424;48.770;-1.564;2023-04-25T01:30:04;101398.35;;;9.94;75.57
80118;BME280;69424;48.770;-1.564;2023-04-25T01:32:33;101395.52;;;9.94;75.35
80118;BME280;69424;48.770;-1.564;2023-04-25T01:35:11;101392.58;;;9.97;75.57
80118;BME280;69424;48.770;-1.564;2023-04-25T01:37:41;101395.84;;;10.01;75.43
80118;BME280;69424;48.770;-1.564;2023-04-25T01:40:12;101391.33;;;10.04;74.73
80118;BME280;69424;48.770;-1.564;2023-04-25T01:42:43;101390.48;;;10.07;74.86
80118;BME280;69424;48.770;-1.564;2023-04-25T01:45:12;101393.14;;;10.06;75.89
80118;BME280;69424;48.770;-1.564;2023-04-25T01:47:40;101400.15;;;10.04;75.02
80118;BME280;69424;48.770;-1.564;2023-04-25T01:50:10;101401.20;;;9.95;74.69
80118;BME280;69424;48.770;-1.564;2023-04-25T01:52:39;101398.35;;;9.87;74.77
80118;BME280;69424;48.770;-1.564;2023-04-25T01:55:09;101402.45;;;9.80;74.88
80118;BME280;69424;48.770;-1.564;2023-04-25T01:57:40;101406.99;;;9.71;75.10
80118;BME280;69424;48.770;-1.564;2023-04-25T02:00:09;101413.72;;;9.63;74.90
80118;BME280;69424;48.770;-1.564;2023-04-25T02:02:41;101418.14;;;9.56;74.98
80118;BME280;69424;48.770;-1.564;2023-04-25T02:05:27;101421.11;;;9.48;75.29
80118;BME280;69424;48.770;-1.564;2023-04-25T02:07:55;101424.75;;;9.37;75.56
80118;BME280;69424;48.770;-1.564;2023-04-25T02:10:25;101422.70;;;9.26;76.03
80118;BME280;69424;48.770;-1.564;2023-04-25T02:13:14;101429.02;;;9.12;76.08
80118;BME280;69424;48.770;-1.564;2023-04-25T02:16:14;101429.61;;;9.00;76.61
80118;BME280;69424;48.770;-1.564;2023-04-25T02:18:43;101426.64;;;8.94;76.38
80118;BME280;69424;48.770;-1.564;2023-04-25T02:21:12;101429.66;;;8.89;76.54
80118;BME280;69424;48.770;-1.564;2023-04-25T02:23:40;101427.45;;;8.85;77.01
80118;BME280;69424;48.770;-1.564;2023-04-25T02:26:09;101427.59;;;8.84;76.82
80118;BME280;69424;48.770;-1.564;2023-04-25T02:28:39;101429.86;;;8.83;76.82
80118;BME280;69424;48.770;-1.564;2023-04-25T02:31:07;101432.23;;;8.80;76.88
80118;BME280;69424;48.770;-1.564;2023-04-25T02:33:35;101430.67;;;8.74;76.75
80118;BME280;69424;48.770;-1.564;2023-04-25T02:36:06;101431.52;;;8.67;76.64
80118;BME280;69424;48.770;-1.564;2023-04-25T02:38:34;101432.20;;;8.59;76.88
80118;BME280;69424;48.770;-1.564;2023-04-25T02:41:03;101436.76;;;8.52;76.93
80118;BME280;69424;48.770;-1.564;2023-04-25T02:43:31;101441.73;;;8.47;77.23
80118;BME280;69424;48.770;-1.564;2023-04-25T02:45:59;101444.11;;;8.43;77.14
80118;BME280;69424;48.770;-1.564;2023-04-25T02:48:27;101445.08;;;8.41;77.35
80118;BME280;69424;48.770;-1.564;2023-04-25T02:50:57;101446.58;;;8.39;77.78
80118;BME280;69424;48.770;-1.564;2023-04-25T02:53:25;101449.61;;;8.40;77.35
80118;BME280;69424;48.770;-1.564;2023-04-25T02:55:53;101444.52;;;8.40;77.60
80118;BME280;69424;48.770;-1.564;2023-04-25T02:58:21;101441.52;;;8.40;77.51
80118;BME280;69424;48.770;-1.564;2023-04-25T03:00:51;101440.88;;;8.37;78.25
80118;BME280;69424;48.770;-1.564;2023-04-25T03:03:20;101433.90;;;8.33;77.95
80118;BME280;69424;48.770;-1.564;2023-04-25T03:05:51;101438.61;;;8.31;78.14
80118;BME280;69424;48.770;-1.564;2023-04-25T03:08:28;101442.11;;;8.31;78.41
80118;BME280;69424;48.770;-1.564;2023-04-25T03:11:01;101440.20;;;8.31;78.49
80118;BME280;69424;48.770;-1.564;2023-04-25T03:13:29;101444.29;;;8.33;77.98
80118;BME280;69424;48.770;-1.564;2023-04-25T03:15:57;101448.58;;;8.35;78.34
80118;BME280;69424;48.770;-1.564;2023-04-25T03:18:26;101445.31;;;8.38;77.94
80118;BME280;69424;48.770;-1.564;2023-04-25T03:20:55;101440.92;;;8.38;77.79
80118;BME280;69424;48.770;-1.564;2023-04-25T03:23:24;101448.05;;;8.35;78.25
80118;BME280;69424;48.770;-1.564;2023-04-25T03:25:52;101452.64;;;8.29;78.09
80118;BME280;69424;48.770;-1.564;2023-04-25T03:28:20;101453.34;;;8.23;78.40
80118;BME280;69424;48.770;-1.564;2023-04-25T03:30:48;101459.16;;;8.18;78.30
80118;BME280;69424;48.770;-1.564;2023-04-25T03:33:16;101462.05;;;8.15;78.43
80118;BME280;69424;48.770;-1.564;2023-04-25T03:35:45;101467.16;;;8.14;78.36
80118;BME280;69424;48.770;-1.564;2023-04-25T03:38:13;101466.77;;;8.12;78.36
80118;BME280;69424;48.770;-1.564;2023-04-25T03:40:41;101460.53;;;8.10;78.23
80118;BME280;69424;48.770;-1.564;2023-04-25T03:43:32;101463.45;;;8.08;78.52
80118;BME280;69424;48.770;-1.564;2023-04-25T03:46:04;101467.72;;;8.03;78.09
80118;BME280;69424;48.770;-1.564;2023-04-25T03:48:32;101473.60;;;8.00;78.19
80118;BME280;69424;48.770;-1.564;2023-04-25T03:51:00;101478.09;;;7.97;78.15
80118;BME280;69424;48.770;-1.564;2023-04-25T03:53:29;101478.77;;;7.90;78.29
80118;BME280;69424;48.770;-1.564;2023-04-25T03:56:15;101477.62;;;7.88;77.99
80118;BME280;69424;48.770;-1.564;2023-04-25T03:58:45;101476.44;;;7.89;77.81
80118;BME280;69424;48.770;-1.564;2023-04-25T04:01:13;101476.88;;;7.92;77.79
80118;BME280;69424;48.770;-1.564;2023-04-25T04:03:42;101474.70;;;7.96;77.68
80118;BME280;69424;48.770;-1.564;2023-04-25T04:06:10;101483.42;;;7.99;76.99
80118;BME280;69424;48.770;-1.564;2023-04-25T04:08:44;101475.42;;;7.97;76.50
80118;BME280;69424;48.770;-1.564;2023-04-25T04:11:12;101482.55;;;7.88;76.66
80118;BME280;69424;48.770;-1.564;2023-04-25T04:13:40;101482.31;;;7.80;76.54
80118;BME280;69424;48.770;-1.564;2023-04-25T04:16:09;101485.96;;;7.73;76.64
80118;BME280;69424;48.770;-1.564;2023-04-25T04:18:38;101488.45;;;7.68;76.73
80118;BME280;69424;48.770;-1.564;2023-04-25T04:21:06;101495.27;;;7.67;76.81
80118;BME280;69424;48.770;-1.564;2023-04-25T04:23:37;101495.98;;;7.67;76.72
80118;BME280;69424;48.770;-1.564;2023-04-25T04:26:07;101501.77;;;7.66;76.28
80118;BME280;69424;48.770;-1.564;2023-04-25T04:28:55;101502.32;;;7.62;76.40
80118;BME280;69424;48.770;-1.564;2023-04-25T04:31:34;101498.20;;;7.55;76.02
80118;BME280;69424;48.770;-1.564;2023-04-25T04:34:02;101499.77;;;7.49;76.52
80118;BME280;69424;48.770;-1.564;2023-04-25T04:36:31;101504.81;;;7.42;76.73
80118;BME280;69424;48.770;-1.564;2023-04-25T04:38:59;101505.09;;;7.34;77.35
80118;BME280;69424;48.770;-1.564;2023-04-25T04:41:49;101497.77;;;7.26;77.46
80118;BME280;69424;48.770;-1.564;2023-04-25T04:44:38;101499.22;;;7.22;77.61
80118;BME280;69424;48.770;-1.564;2023-04-25T04:47:27;101497.42;;;7.16;78.23
80118;BME280;69424;48.770;-1.564;2023-04-25T04:50:18;101501.01;;;7.13;78.57
80118;BME280;69424;48.770;-1.564;2023-04-25T04:53:19;101500.61;;;7.12;78.90
80118;BME280;69424;48.770;-1.564;2023-04-25T04:55:49;101503.61;;;7.12;79.09
80118;BME280;69424;48.770;-1.564;2023-04-25T04:58:36;101502.89;;;7.11;79.47
80118;BME280;69424;48.770;-1.564;2023-04-25T05:01:26;101506.04;;;7.11;79.49
80118;BME280;69424;48.770;-1.564;2023-04-25T05:04:07;101508.60;;;7.09;79.86
80118;BME280;69424;48.770;-1.564;2023-04-25T05:07:08;101513.16;;;7.04;80.17
80118;BME280;69424;48.770;-1.564;2023-04-25T05:09:44;101516.31;;;6.98;80.39
80118;BME280;69424;48.770;-1.564;2023-04-25T05:12:32;101521.02;;;6.97;80.51
80118;BME280;69424;48.770;-1.564;2023-04-25T05:15:21;101532.90;;;7.00;80.46
80118;BME280;69424;48.770;-1.564;2023-04-25T05:18:08;101537.52;;;7.06;80.34
80118;BME280;69424;48.770;-1.564;2023-04-25T05:20:45;101536.49;;;7.12;80.28
80118;BME280;69424;48.770;-1.564;2023-04-25T05:23:26;101541.91;;;7.21;80.38
80118;BME280;69424;48.770;-1.564;2023-04-25T05:25:56;101545.34;;;7.28;80.15
80118;BME280;69424;48.770;-1.564;2023-04-25T05:28:53;101547.11;;;7.33;79.86
80118;BME280;69424;48.770;-1.564;2023-04-25T05:31:42;101551.55;;;7.35;79.81
80118;BME280;69424;48.770;-1.564;2023-04-25T05:34:13;101550.66;;;7.34;79.78
80118;BME280;69424;48.770;-1.564;2023-04-25T05:36:51;101550.92;;;7.32;79.80
80118;BME280;69424;48.770;-1.564;2023-04-25T05:39:19;101552.92;;;7.29;79.97
80118;BME280;69424;48.770;-1.564;2023-04-25T05:42:07;101556.95;;;7.28;80.07
80118;BME280;69424;48.770;-1.564;2023-04-25T05:44:54;101565.38;;;7.33;79.78
80118;BME280;69424;48.770;-1.564;2023-04-25T05:47:42;101573.38;;;7.40;79.75
80118;BME280;69424;48.770;-1.564;2023-04-25T05:50:25;101579.35;;;7.50;79.60
80118;BME280;69424;48.770;-1.564;2023-04-25T05:53:01;101577.57;;;7.59;79.70
80118;BME280;69424;48.770;-1.564;2023-04-25T05:55:32;101581.24;;;7.69;79.29
80118;BME280;69424;48.770;-1.564;2023-04-25T05:58:10;101585.23;;;7.77;79.15
80118;BME280;69424;48.770;-1.564;2023-04-25T06:00:38;101584.23;;;7.84;78.94
80118;BME280;69424;48.770;-1.564;2023-04-25T06:03:09;101585.33;;;7.91;78.74
80118;BME280;69424;48.770;-1.564;2023-04-25T06:05:38;101588.92;;;7.93;78.41
80118;BME280;69424;48.770;-1.564;2023-04-25T06:08:06;101589.27;;;7.98;78.30
80118;BME280;69424;48.770;-1.564;2023-04-25T06:10:34;101585.48;;;8.17;78.11
80118;BME280;69424;48.770;-1.564;2023-04-25T06:13:03;101594.45;;;8.39;77.90
80118;BME280;69424;48.770;-1.564;2023-04-25T06:15:33;101595.21;;;8.80;76.94
80118;BME280;69424;48.770;-1.564;2023-04-25T06:18:02;101599.67;;;9.18;75.80
80118;BME280;69424;48.770;-1.564;2023-04-25T06:20:30;101606.67;;;9.54;75.08
80118;BME280;69424;48.770;-1.564;2023-04-25T06:22:59;101605.77;;;9.80;73.97
80118;BME280;69424;48.770;-1.564;2023-04-25T06:25:45;101608.50;;;9.90;73.65
80118;BME280;69424;48.770;-1.564;2023-04-25T06:28:13;101607.30;;;10.13;73.31
80118;BME280;69424;48.770;-1.564;2023-04-25T06:30:42;101607.81;;;10.26;72.88
80118;BME280;69424;48.770;-1.564;2023-04-25T06:33:13;101609.02;;;10.25;72.28
80118;BME280;69424;48.770;-1.564;2023-04-25T06:35:42;101611.50;;;10.19;72.75
80118;BME280;69424;48.770;-1.564;2023-04-25T06:38:12;101610.39;;;10.16;72.48
80118;BME280;69424;48.770;-1.564;2023-04-25T06:40:43;101609.39;;;10.04;72.55
80118;BME280;69424;48.770;-1.564;2023-04-25T06:43:12;101610.58;;;9.88;72.79
80118;BME280;69424;48.770;-1.564;2023-04-25T06:45:59;101613.97;;;9.69;73.08
80118;BME280;69424;48.770;-1.564;2023-04-25T06:48:29;101616.30;;;9.58;73.37
80118;BME280;69424;48.770;-1.564;2023-04-25T06:50:58;101622.51;;;9.52;72.90
80118;BME280;69424;48.770;-1.564;2023-04-25T06:53:26;101629.73;;;9.51;73.31
80118;BME280;69424;48.770;-1.564;2023-04-25T06:55:58;101632.84;;;9.55;73.27
80118;BME280;69424;48.770;-1.564;2023-04-25T06:58:34;101636.23;;;9.56;73.33
80118;BME280;69424;48.770;-1.564;2023-04-25T07:01:13;101640.48;;;9.57;73.25
80118;BME280;69424;48.770;-1.564;2023-04-25T07:03:42;101639.67;;;9.66;73.18
80118;BME280;69424;48.770;-1.564;2023-04-25T07:06:14;101641.14;;;9.81;73.03
80118;BME280;69424;48.770;-1.564;2023-04-25T07:08:43;101641.95;;;9.99;73.19
80118;BME280;69424;48.770;-1.564;2023-04-25T07:11:11;101642.56;;;10.16;72.59
80118;BME280;69424;48.770;-1.564;2023-04-25T07:13:40;101641.95;;;10.27;72.31
80118;BME280;69424;48.770;-1.564;2023-04-25T07:16:08;101641.89;;;10.38;71.65
80118;BME280;69424;48.770;-1.564;2023-04-25T07:18:36;101640.89;;;10.55;71.35
80118;BME280;69424;48.770;-1.564;2023-04-25T07:21:05;101638.66;;;10.74;70.16
80118;BME280;69424;48.770;-1.564;2023-04-25T07:23:33;101644.09;;;10.87;69.40
80118;BME280;69424;48.770;-1.564;2023-04-25T07:26:05;101641.63;;;10.88;68.76
80118;BME280;69424;48.770;-1.564;2023-04-25T07:28:34;101642.86;;;10.87;69.01
80118;BME280;69424;48.770;-1.564;2023-04-25T07:31:02;101641.46;;;10.88;68.91
80118;BME280;69424;48.770;-1.564;2023-04-25T07:33:33;101637.80;;;10.82;68.64
80118;BME280;69424;48.770;-1.564;2023-04-25T07:36:02;101640.14;;;10.77;68.74
80118;BME280;69424;48.770;-1.564;2023-04-25T07:38:30;101643.15;;;10.69;68.66
80118;BME280;69424;48.770;-1.564;2023-04-25T07:40:58;101646.90;;;10.63;68.70
80118;BME280;69424;48.770;-1.564;2023-04-25T07:43:27;101650.11;;;10.57;68.00
80118;BME280;69424;48.770;-1.564;2023-04-25T07:45:58;101646.12;;;10.59;68.35
80118;BME280;69424;48.770;-1.564;2023-04-25T07:48:27;101638.77;;;10.71;67.17
80118;BME280;69424;48.770;-1.564;2023-04-25T07:50:56;101633.34;;;10.73;66.13
80118;BME280;69424;48.770;-1.564;2023-04-25T07:53:23;101640.73;;;10.72;65.41
80118;BME280;69424;48.770;-1.564;2023-04-25T07:55:54;101639.15;;;10.72;65.07
80118;BME280;69424;48.770;-1.564;2023-04-25T07:58:23;101648.98;;;10.76;64.77
80118;BME280;69424;48.770;-1.564;2023-04-25T08:00:55;101648.94;;;10.82;65.04
80118;BME280;69424;48.770;-1.564;2023-04-25T08:03:43;101660.05;;;10.88;64.82
80118;BME280;69424;48.770;-1.564;2023-04-25T08:06:16;101667.94;;;10.93;64.30
80118;BME280;69424;48.770;-1.564;2023-04-25T08:08:51;101669.42;;;10.96;64.19
80118;BME280;69424;48.770;-1.564;2023-04-25T08:11:20;101670.13;;;10.96;63.60
80118;BME280;69424;48.770;-1.564;2023-04-25T08:13:49;101667.53;;;10.91;62.49
80118;BME280;69424;48.770;-1.564;2023-04-25T08:16:18;101669.84;;;10.92;62.95
80118;BME280;69424;48.770;-1.564;2023-04-25T08:18:46;101674.08;;;10.98;63.37
80118;BME280;69424;48.770;-1.564;2023-04-25T08:21:15;101672.29;;;11.06;63.19
80118;BME280;69424;48.770;-1.564;2023-04-25T08:23:43;101672.77;;;11.20;63.64
80118;BME280;69424;48.770;-1.564;2023-04-25T08:26:16;101679.38;;;11.40;63.22
80118;BME280;69424;48.770;-1.564;2023-04-25T08:28:44;101676.27;;;11.61;62.70
80118;BME280;69424;48.770;-1.564;2023-04-25T08:31:12;101672.04;;;11.81;62.15
80118;BME280;69424;48.770;-1.564;2023-04-25T08:33:48;101665.25;;;11.95;61.55
80118;BME280;69424;48.770;-1.564;2023-04-25T08:36:24;101677.00;;;11.98;60.87
80118;BME280;69424;48.770;-1.564;2023-04-25T08:39:14;101685.20;;;11.92;60.95
80118;BME280;69424;48.770;-1.564;2023-04-25T08:41:49;101689.93;;;11.89;61.32
80118;BME280;69424;48.770;-1.564;2023-04-25T08:44:19;101695.42;;;11.90;61.12
80118;BME280;69424;48.770;-1.564;2023-04-25T08:46:49;101702.70;;;11.90;60.76
80118;BME280;69424;48.770;-1.564;2023-04-25T08:49:26;101704.23;;;11.87;60.23
80118;BME280;69424;48.770;-1.564;2023-04-25T08:51:57;101706.13;;;11.84;59.73
80118;BME280;69424;48.770;-1.564;2023-04-25T08:54:28;101715.75;;;11.78;59.17
80118;BME280;69424;48.770;-1.564;2023-04-25T08:57:05;101717.35;;;11.69;59.40
80118;BME280;69424;48.770;-1.564;2023-04-25T08:59:33;101719.70;;;11.63;59.73
80118;BME280;69424;48.770;-1.564;2023-04-25T09:02:06;101720.20;;;11.61;59.68
80118;BME280;69424;48.770;-1.564;2023-04-25T09:04:34;101717.50;;;11.67;59.52
80118;BME280;69424;48.770;-1.564;2023-04-25T09:07:03;101709.45;;;11.90;58.42
80118;BME280;69424;48.770;-1.564;2023-04-25T09:09:31;101710.05;;;12.13;57.53
80118;BME280;69424;48.770;-1.564;2023-04-25T09:12:00;101720.03;;;12.25;56.29
80118;BME280;69424;48.770;-1.564;2023-04-25T09:14:29;101730.80;;;12.32;56.11
80118;BME280;69424;48.770;-1.564;2023-04-25T09:17:11;101725.96;;;12.40;55.97
80118;BME280;69424;48.770;-1.564;2023-04-25T09:19:42;101726.30;;;12.39;56.18
80118;BME280;69424;48.770;-1.564;2023-04-25T09:22:22;101733.36;;;12.47;56.22
80118;BME280;69424;48.770;-1.564;2023-04-25T09:24:51;101730.44;;;12.52;55.59
80118;BME280;69424;48.770;-1.564;2023-04-25T09:27:21;101731.85;;;12.52;55.68
80118;BME280;69424;48.770;-1.564;2023-04-25T09:30:15;101729.70;;;12.51;55.91
80118;BME280;69424;48.770;-1.564;2023-04-25T09:33:08;101724.64;;;12.45;55.84
80118;BME280;69424;48.770;-1.564;2023-04-25T09:35:39;101723.61;;;12.37;55.00
80118;BME280;69424;48.770;-1.564;2023-04-25T09:38:10;101723.45;;;12.28;55.26
80118;BME280;69424;48.770;-1.564;2023-04-25T09:41:05;101717.59;;;12.27;54.77
80118;BME280;69424;48.770;-1.564;2023-04-25T09:43:38;101717.29;;;12.41;55.18
80118;BME280;69424;48.770;-1.564;2023-04-25T09:46:10;101712.90;;;12.54;54.71
80118;BME280;69424;48.770;-1.564;2023-04-25T09:48:50;101705.56;;;12.73;54.64
80118;BME280;69424;48.770;-1.564;2023-04-25T09:51:26;101706.89;;;13.02;52.99
80118;BME280;69424;48.770;-1.564;2023-04-25T09:53:58;101712.58;;;13.28;52.46
80118;BME280;69424;48.770;-1.564;2023-04-25T09:56:57;101715.89;;;13.48;51.76
80118;BME280;69424;48.770;-1.564;2023-04-25T09:59:27;101712.92;;;13.67;50.73
80118;BME280;69424;48.770;-1.564;2023-04-25T10:01:59;101716.11;;;13.82;50.95
80118;BME280;69424;48.770;-1.564;2023-04-25T10:04:30;101713.56;;;13.77;51.28
80118;BME280;69424;48.770;-1.564;2023-04-25T10:07:18;101714.06;;;13.59;50.25
80118;BME280;69424;48.770;-1.564;2023-04-25T10:09:48;101712.70;;;13.49;50.42
80118;BME280;69424;48.770;-1.564;2023-04-25T10:12:19;101710.95;;;13.50;50.78
80118;BME280;69424;48.770;-1.564;2023-04-25T10:14:47;101710.23;;;13.65;50.56
80118;BME280;69424;48.770;-1.564;2023-04-25T10:17:16;101716.67;;;13.84;50.69
80118;BME280;69424;48.770;-1.564;2023-04-25T10:19:48;101720.59;;;14.00;50.97
80118;BME280;69424;48.770;-1.564;2023-04-25T10:22:23;101715.27;;;14.02;51.11
80118;BME280;69424;48.770;-1.564;2023-04-25T10:24:55;101717.81;;;13.91;50.55
80118;BME280;69424;48.770;-1.564;2023-04-25T10:27:27;101722.30;;;13.79;50.79
80118;BME280;69424;48.770;-1.564;2023-04-25T10:30:08;101719.92;;;13.88;50.67
80118;BME280;69424;48.770;-1.564;2023-04-25T10:32:44;101724.84;;;13.98;50.95
80118;BME280;69424;48.770;-1.564;2023-04-25T10:35:18;101727.41;;;14.05;50.23
80118;BME280;69424;48.770;-1.564;2023-04-25T10:38:16;101728.19;;;14.13;49.87
80118;BME280;69424;48.770;-1.564;2023-04-25T10:41:05;101723.25;;;14.37;49.79
80118;BME280;69424;48.770;-1.564;2023-04-25T10:43:38;101722.95;;;14.61;48.21
80118;BME280;69424;48.770;-1.564;2023-04-25T10:46:32;101726.32;;;14.82;48.25
80118;BME280;69424;48.770;-1.564;2023-04-25T10:49:03;101731.28;;;15.02;45.80
80118;BME280;69424;48.770;-1.564;2023-04-25T10:51:33;101724.63;;;14.93;46.10
80118;BME280;69424;48.770;-1.564;2023-04-25T10:54:22;101729.19;;;14.85;46.73
80118;BME280;69424;48.770;-1.564;2023-04-25T10:56:50;101728.27;;;14.80;45.35
80118;BME280;69424;48.770;-1.564;2023-04-25T10:59:19;101718.49;;;14.81;46.06
80118;BME280;69424;48.770;-1.564;2023-04-25T11:01:51;101723.75;;;14.96;45.81
80118;BME280;69424;48.770;-1.564;2023-04-25T11:07:12;101725.95;;;15.40;46.62
80118;BME280;69424;48.770;-1.564;2023-04-25T11:09:41;101720.02;;;15.69;45.68
80118;BME280;69424;48.770;-1.564;2023-04-25T11:12:10;101721.90;;;15.91;43.97
80118;BME280;69424;48.770;-1.564;2023-04-25T11:15:03;101714.96;;;15.94;43.94
80118;BME280;69424;48.770;-1.564;2023-04-25T11:17:32;101714.77;;;15.92;44.67
80118;BME280;69424;48.770;-1.564;2023-04-25T11:20:01;101717.27;;;15.92;44.00
80118;BME280;69424;48.770;-1.564;2023-04-25T11:22:34;101717.61;;;15.89;43.27
80118;BME280;69424;48.770;-1.564;2023-04-25T11:25:06;101713.68;;;15.85;42.77
80118;BME280;69424;48.770;-1.564;2023-04-25T11:27:58;101715.64;;;15.84;42.67
80118;BME280;69424;48.770;-1.564;2023-04-25T11:30:26;101715.88;;;15.61;43.06
80118;BME280;69424;48.770;-1.564;2023-04-25T11:32:54;101714.06;;;15.49;43.44
80118;BME280;69424;48.770;-1.564;2023-04-25T11:35:23;101717.95;;;15.46;43.92
80118;BME280;69424;48.770;-1.564;2023-04-25T11:37:53;101717.02;;;15.33;43.44
80118;BME280;69424;48.770;-1.564;2023-04-25T11:40:21;101716.77;;;15.19;43.52
80118;BME280;69424;48.770;-1.564;2023-04-25T11:42:50;101719.72;;;15.06;43.49
80118;BME280;69424;48.770;-1.564;2023-04-25T11:45:22;101715.77;;;15.00;43.56
80118;BME280;69424;48.770;-1.564;2023-04-25T11:47:51;101716.99;;;14.98;44.11
80118;BME280;69424;48.770;-1.564;2023-04-25T11:50:20;101721.59;;;14.93;44.64
80118;BME280;69424;48.770;-1.564;2023-04-25T11:52:48;101722.31;;;14.95;44.77
80118;BME280;69424;48.770;-1.564;2023-04-25T11:55:20;101722.35;;;15.01;44.89
80118;BME280;69424;48.770;-1.564;2023-04-25T11:57:49;101711.86;;;15.01;44.36
80118;BME280;69424;48.770;-1.564;2023-04-25T12:00:21;101710.83;;;15.09;44.73
80118;BME280;69424;48.770;-1.564;2023-04-25T12:02:54;101711.71;;;15.08;44.41
80118;BME280;69424;48.770;-1.564;2023-04-25T12:05:27;101709.91;;;15.02;44.60
80118;BME280;69424;48.770;-1.564;2023-04-25T12:08:11;101712.73;;;14.99;44.64
80118;BME280;69424;48.770;-1.564;2023-04-25T12:10:41;101714.65;;;14.95;44.46
80118;BME280;69424;48.770;-1.564;2023-04-25T12:13:23;101712.52;;;14.96;44.48
80118;BME280;69424;48.770;-1.564;2023-04-25T12:15:54;101713.73;;;14.89;44.64
80118;BME280;69424;48.770;-1.564;2023-04-25T12:18:24;101715.83;;;14.84;45.20
80118;BME280;69424;48.770;-1.564;2023-04-25T12:20:55;101713.29;;;14.77;45.37
80118;BME280;69424;48.770;-1.564;2023-04-25T12:23:27;101718.99;;;14.78;45.45
80118;BME280;69424;48.770;-1.564;2023-04-25T12:25:56;101718.09;;;14.77;45.66
80118;BME280;69424;48.770;-1.564;2023-04-25T12:28:25;101721.26;;;14.72;45.32
80118;BME280;69424;48.770;-1.564;2023-04-25T12:31:01;101722.30;;;14.68;45.96
80118;BME280;69424;48.770;-1.564;2023-04-25T12:33:31;101724.41;;;14.62;45.83
80118;BME280;69424;48.770;-1.564;2023-04-25T12:36:01;101723.69;;;14.63;46.19
80118;BME280;69424;48.770;-1.564;2023-04-25T12:38:41;101723.41;;;14.74;46.23
80118;BME280;69424;48.770;-1.564;2023-04-25T12:41:09;101716.23;;;14.89;46.07
80118;BME280;69424;48.770;-1.564;2023-04-25T12:43:38;101716.98;;;14.97;45.51
80118;BME280;69424;48.770;-1.564;2023-04-25T12:46:06;101714.39;;;15.08;45.58
80118;BME280;69424;48.770;-1.564;2023-04-25T12:48:35;101711.27;;;15.25;45.22
80118;BME280;69424;48.770;-1.564;2023-04-25T12:51:03;101708.98;;;15.34;44.56
80118;BME280;69424;48.770;-1.564;2023-04-25T12:53:31;101710.59;;;15.33;44.38
80118;BME280;69424;48.770;-1.564;2023-04-25T12:56:02;101707.96;;;15.41;44.08
80118;BME280;69424;48.770;-1.564;2023-04-25T12:58:30;101714.40;;;15.46;44.12
80118;BME280;69424;48.770;-1.564;2023-04-25T13:00:58;101712.27;;;15.47;44.04
80118;BME280;69424;48.770;-1.564;2023-04-25T13:03:26;101710.67;;;15.50;43.45
80118;BME280;69424;48.770;-1.564;2023-04-25T13:05:55;101701.80;;;15.58;44.23
80118;BME280;69424;48.770;-1.564;2023-04-25T13:08:23;101701.64;;;15.68;43.91
80118;BME280;69424;48.770;-1.564;2023-04-25T13:10:51;101699.87;;;15.68;43.68
80118;BME280;69424;48.770;-1.564;2023-04-25T13:13:19;101699.14;;;15.66;44.05
80118;BME280;69424;48.770;-1.564;2023-04-25T13:15:48;101696.81;;;15.63;43.65